sensor_id;sensor_type;location;lat;lon;timestamp;temperature;humidity
5779;DHT22;2916;49.798;10.022;2023-04-28T00:00:53;11.70;1.00
5779;DHT22;2916;49.798;10.022;2023-04-28T00:03:20;11.70;1.00
5779;DHT22;2916;49.798;10.022;2023-04-28T00:05:48;11.70;1.00
5779;DHT22;2916;49.798;10.022;2023-04-28T00:08:17;11.60;1.00
5779;DHT22;2916;49.798;10.022;2023-04-28T00:10:46;11.60;1.00
5779;DHT22;2916;49.798;10.022;2023-04-28T00:13:13;11.50;1.00
5779;DHT22;2916;49.798;10.022;2023-04-28T00:15:40;11.60;1.00
5779;DHT22;2916;49.798;10.022;2023-04-28T00:18:08;11.60;1.00
5779;DHT22;2916;49.798;10.022;2023-04-28T00:20:35;11.60;1.00
5779;DHT22;2916;49.798;10.022;2023-04-28T00:23:02;11.60;1.00
5779;DHT22;2916;49.798;10.022;2023-04-28T00:25:31;11.50;1.00
5779;DHT22;2916;49.798;10.022;2023-04-28T00:27:59;11.50;1.00
5779;DHT22;2916;49.798;10.022;2023-04-28T00:30:26;11.40;1.00
5779;DHT22;2916;49.798;10.022;2023-04-28T00:32:55;11.40;1.00
5779;DHT22;2916;49.798;10.022;2023-04-28T00:35:22;11.40;1.00
5779;DHT22;2916;49.798;10.022;2023-04-28T00:37:50;11.30;1.00
5779;DHT22;2916;49.798;10.022;2023-04-28T00:40:17;11.30;1.00
5779;DHT22;2916;49.798;10.022;2023-04-28T00:42:46;11.20;1.00
5779;DHT22;2916;49.798;10.022;2023-04-28T00:45:13;11.20;1.00
5779;DHT22;2916;49.798;10.022;2023-04-28T00:47:41;11.20;1.00
5779;DHT22;2916;49.798;10.022;2023-04-28T00:50:09;11.20;1.00
5779;DHT22;2916;49.798;10.022;2023-04-28T00:52:37;11.00;1.00
5779;DHT22;2916;49.798;10.022;2023-04-28T00:55:06;11.00;1.00
5779;DHT22;2916;49.798;10.022;2023-04-28T00:57:35;11.00;1.00
5779;DHT22;2916;49.798;10.022;2023-04-28T01:00:05;10.90;1.00
5779;DHT22;2916;49.798;10.022;2023-04-28T01:02:34;10.90;1.00
5779;DHT22;2916;49.798;10.022;2023-04-28T01:05:03;10.80;1.00
5779;DHT22;2916;49.798;10.022;2023-04-28T01:07:30;10.80;1.00
5779;DHT22;2916;49.798;10.022;2023-04-28T01:09:59;10.90;1.00
5779;DHT22;2916;49.798;10.022;2023-04-28T01:12:26;10.80;1.00
5779;DHT22;2916;49.798;10.022;2023-04-28T01:14:55;10.80;1.00
5779;DHT22;2916;49.798;10.022;2023-04-28T01:17:24;10.70;1.00
5779;DHT22;2916;49.798;10.022;2023-04-28T01:19:51;10.60;1.00
5779;DHT22;2916;49.798;10.022;2023-04-28T01:22:19;10.60;1.00
5779;DHT22;2916;49.798;10.022;2023-04-28T01:24:47;10.60;1.00
5779;DHT22;2916;49.798;10.022;2023-04-28T01:27:15;10.50;1.00
5779;DHT22;2916;49.798;10.022;2023-04-28T01:29:42;10.60;1.00
5779;DHT22;2916;49.798;10.022;2023-04-28T01:32:09;10.60;1.00
5779;DHT22;2916;49.798;10.022;2023-04-28T01:34:37;10.70;1.00
5779;DHT22;2916;49.798;10.022;2023-04-28T01:37:04;10.70;1.00
5779;DHT22;2916;49.798;10.022;2023-04-28T01:39:31;10.70;1.00
5779;DHT22;2916;49.798;10.022;2023-04-28T01:42:01;10.60;1.00
5779;DHT22;2916;49.798;10.022;2023-04-28T01:44:28;10.60;1.00
5779;DHT22;2916;49.798;10.022;2023-04-28T01:46:55;10.50;1.00
5779;DHT22;2916;49.798;10.022;2023-04-28T01:49:22;10.50;1.00
5779;DHT22;2916;49.798;10.022;2023-04-28T01:51:50;10.50;1.00
5779;DHT22;2916;49.798;10.022;2023-04-28T01:54:17;10.40;1.00
5779;DHT22;2916;49.798;10.022;2023-04-28T01:56:44;10.40;1.00
5779;DHT22;2916;49.798;10.022;2023-04-28T01:59:12;10.40;1.00
5779;DHT22;2916;49.798;10.022;2023-04-28T02:01:39;10.40;1.00
5779;DHT22;2916;49.798;10.022;2023-04-28T02:04:07;10.40;1.00
5779;DHT22;2916;49.798;10.022;2023-04-28T02:06:34;10.40;1.00
5779;DHT22;2916;49.798;10.022;2023-04-28T02:09:01;10.40;1.00
5779;DHT22;2916;49.798;10.022;2023-04-28T02:11:28;10.40;1.00
5779;DHT22;2916;49.798;10.022;2023-04-28T02:13:55;10.40;1.00
5779;DHT22;2916;49.798;10.022;2023-04-28T02:16:24;10.40;1.00
5779;DHT22;2916;49.798;10.022;2023-04-28T02:18:51;10.30;1.00
5779;DHT22;2916;49.798;10.022;2023-04-28T02:21:18;10.30;1.00
5779;DHT22;2916;49.798;10.022;2023-04-28T02:23:45;10.40;1.00
5779;DHT22;2916;49.798;10.022;2023-04-28T02:26:13;10.40;1.00
5779;DHT22;2916;49.798;10.022;2023-04-28T02:28:41;10.40;1.00
5779;DHT22;2916;49.798;10.022;2023-04-28T02:31:10;10.50;1.00
5779;DHT22;2916;49.798;10.022;2023-04-28T02:33:39;10.50;1.00
5779;DHT22;2916;49.798;10.022;2023-04-28T02:36:08;10.50;1.00
5779;DHT22;2916;49.798;10.022;2023-04-28T02:38:36;10.50;1.00
5779;DHT22;2916;49.798;10.022;2023-04-28T02:41:05;10.60;1.00
5779;DHT22;2916;49.798;10.022;2023-04-28T02:43:34;10.60;1.00
5779;DHT22;2916;49.798;10.022;2023-04-28T02:46:02;10.60;1.00
5779;DHT22;2916;49.798;10.022;2023-04-28T02:48:30;10.50;1.00
5779;DHT22;2916;49.798;10.022;2023-04-28T02:50:59;10.50;1.00
5779;DHT22;2916;49.798;10.022;2023-04-28T02:53:26;10.50;1.00
5779;DHT22;2916;49.798;10.022;2023-04-28T02:55:53;10.60;1.00
5779;DHT22;2916;49.798;10.022;2023-04-28T02:58:21;10.50;1.00
5779;DHT22;2916;49.798;10.022;2023-04-28T03:00:48;10.50;1.00
5779;DHT22;2916;49.798;10.022;2023-04-28T03:03:15;10.40;1.00
5779;DHT22;2916;49.798;10.022;2023-04-28T03:05:43;10.40;1.00
5779;DHT22;2916;49.798;10.022;2023-04-28T03:08:12;10.30;1.00
5779;DHT22;2916;49.798;10.022;2023-04-28T03:10:39;10.30;1.00
5779;DHT22;2916;49.798;10.022;2023-04-28T03:13:06;10.30;1.00
5779;DHT22;2916;49.798;10.022;2023-04-28T03:15:33;10.30;1.00
5779;DHT22;2916;49.798;10.022;2023-04-28T03:18:00;10.30;1.00
5779;DHT22;2916;49.798;10.022;2023-04-28T03:20:28;10.30;1.00
5779;DHT22;2916;49.798;10.022;2023-04-28T03:22:55;10.30;2.60
5779;DHT22;2916;49.798;10.022;2023-04-28T03:25:24;10.20;2.50
5779;DHT22;2916;49.798;10.022;2023-04-28T03:27:51;10.20;3.10
5779;DHT22;2916;49.798;10.022;2023-04-28T03:30:18;10.20;1.20
5779;DHT22;2916;49.798;10.022;2023-04-28T03:32:45;10.20;1.20
5779;DHT22;2916;49.798;10.022;2023-04-28T03:35:13;10.30;2.60
5779;DHT22;2916;49.798;10.022;2023-04-28T03:37:40;10.30;2.60
5779;DHT22;2916;49.798;10.022;2023-04-28T03:40:08;10.40;3.40
5779;DHT22;2916;49.798;10.022;2023-04-28T03:42:37;10.40;5.00
5779;DHT22;2916;49.798;10.022;2023-04-28T03:45:05;10.50;4.40
5779;DHT22;2916;49.798;10.022;2023-04-28T03:47:33;10.50;11.30
5779;DHT22;2916;49.798;10.022;2023-04-28T03:50:00;10.50;11.40
5779;DHT22;2916;49.798;10.022;2023-04-28T03:52:27;10.50;13.90
5779;DHT22;2916;49.798;10.022;2023-04-28T03:54:55;10.50;17.50
5779;DHT22;2916;49.798;10.022;2023-04-28T03:57:22;10.50;18.00
5779;DHT22;2916;49.798;10.022;2023-04-28T03:59:51;10.40;19.90
5779;DHT22;2916;49.798;10.022;2023-04-28T04:02:18;10.50;38.80
5779;DHT22;2916;49.798;10.022;2023-04-28T04:04:45;10.40;45.70
5779;DHT22;2916;49.798;10.022;2023-04-28T04:07:13;10.40;54.20
5779;DHT22;2916;49.798;10.022;2023-04-28T04:09:40;10.40;54.90
5779;DHT22;2916;49.798;10.022;2023-04-28T04:12:07;10.20;51.80
5779;DHT22;2916;49.798;10.022;2023-04-28T04:14:34;10.10;64.10
5779;DHT22;2916;49.798;10.022;2023-04-28T04:17:03;10.10;78.00
5779;DHT22;2916;49.798;10.022;2023-04-28T04:19:30;9.90;85.60
5779;DHT22;2916;49.798;10.022;2023-04-28T04:21:57;9.90;90.00
5779;DHT22;2916;49.798;10.022;2023-04-28T04:24:24;9.90;94.40
5779;DHT22;2916;49.798;10.022;2023-04-28T04:26:51;10.00;94.70
5779;DHT22;2916;49.798;10.022;2023-04-28T04:29:18;10.10;99.90
5779;DHT22;2916;49.798;10.022;2023-04-28T04:31:46;10.10;99.90
5779;DHT22;2916;49.798;10.022;2023-04-28T04:34:15;10.20;99.90
5779;DHT22;2916;49.798;10.022;2023-04-28T04:36:42;10.30;99.90
5779;DHT22;2916;49.798;10.022;2023-04-28T04:39:10;10.20;99.90
5779;DHT22;2916;49.798;10.022;2023-04-28T04:41:37;10.20;99.90
5779;DHT22;2916;49.798;10.022;2023-04-28T04:44:05;10.10;99.90
5779;DHT22;2916;49.798;10.022;2023-04-28T04:46:32;10.10;99.90
5779;DHT22;2916;49.798;10.022;2023-04-28T04:48:59;10.00;99.90
5779;DHT22;2916;49.798;10.022;2023-04-28T04:51:28;9.90;99.90
5779;DHT22;2916;49.798;10.022;2023-04-28T04:53:55;9.80;99.90
5779;DHT22;2916;49.798;10.022;2023-04-28T04:56:22;9.70;99.90
5779;DHT22;2916;49.798;10.022;2023-04-28T04:58:50;9.70;99.90
5779;DHT22;2916;49.798;10.022;2023-04-28T05:01:18;9.60;99.90
5779;DHT22;2916;49.798;10.022;2023-04-28T05:03:45;9.70;99.90
5779;DHT22;2916;49.798;10.022;2023-04-28T05:06:12;9.80;99.90
5779;DHT22;2916;49.798;10.022;2023-04-28T05:08:41;9.80;99.90
5779;DHT22;2916;49.798;10.022;2023-04-28T05:11:08;9.80;99.90
5779;DHT22;2916;49.798;10.022;2023-04-28T05:13:36;9.80;99.90
5779;DHT22;2916;49.798;10.022;2023-04-28T05:16:05;9.90;99.90
5779;DHT22;2916;49.798;10.022;2023-04-28T05:18:32;9.90;99.90
5779;DHT22;2916;49.798;10.022;2023-04-28T05:21:00;10.00;99.90
5779;DHT22;2916;49.798;10.022;2023-04-28T05:23:27;10.00;99.90
5779;DHT22;2916;49.798;10.022;2023-04-28T05:25:56;10.10;99.90
5779;DHT22;2916;49.798;10.022;2023-04-28T05:28:23;10.10;99.90
5779;DHT22;2916;49.798;10.022;2023-04-28T05:30:50;10.20;99.90
5779;DHT22;2916;49.798;10.022;2023-04-28T05:33:17;10.20;99.90
5779;DHT22;2916;49.798;10.022;2023-04-28T05:35:45;10.30;99.90
5779;DHT22;2916;49.798;10.022;2023-04-28T05:38:12;10.30;99.90
5779;DHT22;2916;49.798;10.022;2023-04-28T05:40:39;10.30;99.90
5779;DHT22;2916;49.798;10.022;2023-04-28T05:43:08;10.40;99.90
5779;DHT22;2916;49.798;10.022;2023-04-28T05:45:35;10.40;99.90
5779;DHT22;2916;49.798;10.022;2023-04-28T05:48:03;10.40;99.90
5779;DHT22;2916;49.798;10.022;2023-04-28T05:50:30;10.40;99.90
5779;DHT22;2916;49.798;10.022;2023-04-28T05:52:57;10.50;99.90
5779;DHT22;2916;49.798;10.022;2023-04-28T05:55:25;10.50;99.90
5779;DHT22;2916;49.798;10.022;2023-04-28T05:57:53;10.60;99.90
5779;DHT22;2916;49.798;10.022;2023-04-28T06:00:22;10.70;99.90
5779;DHT22;2916;49.798;10.022;2023-04-28T06:02:49;10.70;99.90
5779;DHT22;2916;49.798;10.022;2023-04-28T06:05:16;10.80;99.90
5779;DHT22;2916;49.798;10.022;2023-04-28T06:07:44;10.70;99.90
5779;DHT22;2916;49.798;10.022;2023-04-28T06:10:11;10.70;99.90
5779;DHT22;2916;49.798;10.022;2023-04-28T06:12:38;10.70;99.90
5779;DHT22;2916;49.798;10.022;2023-04-28T06:15:06;10.70;99.90
5779;DHT22;2916;49.798;10.022;2023-04-28T06:17:35;10.70;99.90
5779;DHT22;2916;49.798;10.022;2023-04-28T06:20:03;10.80;99.90
5779;DHT22;2916;49.798;10.022;2023-04-28T06:22:31;10.80;99.90
5779;DHT22;2916;49.798;10.022;2023-04-28T06:24:58;10.80;99.90
5779;DHT22;2916;49.798;10.022;2023-04-28T06:27:25;10.70;99.90
5779;DHT22;2916;49.798;10.022;2023-04-28T06:29:52;10.80;99.90
5779;DHT22;2916;49.798;10.022;2023-04-28T06:32:20;10.80;99.90
5779;DHT22;2916;49.798;10.022;2023-04-28T06:34:48;10.80;99.90
5779;DHT22;2916;49.798;10.022;2023-04-28T06:37:16;10.80;99.90
5779;DHT22;2916;49.798;10.022;2023-04-28T06:39:43;10.80;99.90
5779;DHT22;2916;49.798;10.022;2023-04-28T06:42:10;10.90;99.90
5779;DHT22;2916;49.798;10.022;2023-04-28T06:44:38;10.90;99.90
5779;DHT22;2916;49.798;10.022;2023-04-28T06:47:05;10.90;99.90
5779;DHT22;2916;49.798;10.022;2023-04-28T06:49:32;10.90;99.90
5779;DHT22;2916;49.798;10.022;2023-04-28T06:52:01;10.90;99.90
5779;DHT22;2916;49.798;10.022;2023-04-28T06:54:28;10.90;99.90
5779;DHT22;2916;49.798;10.022;2023-04-28T06:56:55;11.10;99.90
5779;DHT22;2916;49.798;10.022;2023-04-28T06:59:23;11.20;99.90
5779;DHT22;2916;49.798;10.022;2023-04-28T07:01:50;11.20;99.90
5779;DHT22;2916;49.798;10.022;2023-04-28T07:04:17;11.30;99.90
5779;DHT22;2916;49.798;10.022;2023-04-28T07:06:44;11.30;99.90
5779;DHT22;2916;49.798;10.022;2023-04-28T07:09:13;11.10;99.90
5779;DHT22;2916;49.798;10.022;2023-04-28T07:11:42;11.00;99.90
5779;DHT22;2916;49.798;10.022;2023-04-28T07:14:09;11.10;99.90
5779;DHT22;2916;49.798;10.022;2023-04-28T07:16:36;11.10;99.90
5779;DHT22;2916;49.798;10.022;2023-04-28T07:19:03;11.00;99.90
5779;DHT22;2916;49.798;10.022;2023-04-28T07:21:31;11.10;99.90
5779;DHT22;2916;49.798;10.022;2023-04-28T07:23:59;11.10;99.90
5779;DHT22;2916;49.798;10.022;2023-04-28T07:26:27;11.00;99.90
5779;DHT22;2916;49.798;10.022;2023-04-28T07:28:54;11.10;99.90
5779;DHT22;2916;49.798;10.022;2023-04-28T07:31:22;11.00;99.90
5779;DHT22;2916;49.798;10.022;2023-04-28T07:33:50;10.90;99.90
5779;DHT22;2916;49.798;10.022;2023-04-28T07:36:17;10.80;99.90
5779;DHT22;2916;49.798;10.022;2023-04-28T07:38:45;10.80;99.90
5779;DHT22;2916;49.798;10.022;2023-04-28T07:41:12;10.70;99.90
5779;DHT22;2916;49.798;10.022;2023-04-28T07:43:41;10.70;99.90
5779;DHT22;2916;49.798;10.022;2023-04-28T07:46:08;10.70;99.90
5779;DHT22;2916;49.798;10.022;2023-04-28T07:48:36;10.60;99.90
5779;DHT22;2916;49.798;10.022;2023-04-28T07:51:03;10.70;99.90
5779;DHT22;2916;49.798;10.022;2023-04-28T07:53:31;10.70;99.90
5779;DHT22;2916;49.798;10.022;2023-04-28T07:55:58;10.80;99.90
5779;DHT22;2916;49.798;10.022;2023-04-28T07:58:25;10.90;99.90
5779;DHT22;2916;49.798;10.022;2023-04-28T08:00:54;11.00;99.90
5779;DHT22;2916;49.798;10.022;2023-04-28T08:03:21;10.90;99.90
5779;DHT22;2916;49.798;10.022;2023-04-28T08:05:48;11.10;99.90
5779;DHT22;2916;49.798;10.022;2023-04-28T08:08:16;11.00;99.90
5779;DHT22;2916;49.798;10.022;2023-04-28T08:10:43;11.20;99.90
5779;DHT22;2916;49.798;10.022;2023-04-28T08:13:10;11.20;99.90
5779;DHT22;2916;49.798;10.022;2023-04-28T08:15:41;11.40;99.90
5779;DHT22;2916;49.798;10.022;2023-04-28T08:18:10;11.30;99.90
5779;DHT22;2916;49.798;10.022;2023-04-28T08:20:37;11.20;99.90
5779;DHT22;2916;49.798;10.022;2023-04-28T08:23:05;11.40;99.90
5779;DHT22;2916;49.798;10.022;2023-04-28T08:25:32;11.30;99.90
5779;DHT22;2916;49.798;10.022;2023-04-28T08:27:59;11.40;99.90
5779;DHT22;2916;49.798;10.022;2023-04-28T08:30:28;11.30;99.90
5779;DHT22;2916;49.798;10.022;2023-04-28T08:32:55;11.10;99.90
5779;DHT22;2916;49.798;10.022;2023-04-28T08:35:24;11.00;99.90
5779;DHT22;2916;49.798;10.022;2023-04-28T08:37:52;10.90;99.90
5779;DHT22;2916;49.798;10.022;2023-04-28T08:40:20;10.90;99.90
5779;DHT22;2916;49.798;10.022;2023-04-28T08:42:49;11.00;99.90
5779;DHT22;2916;49.798;10.022;2023-04-28T08:45:16;11.00;99.90
5779;DHT22;2916;49.798;10.022;2023-04-28T08:47:43;10.90;99.90
5779;DHT22;2916;49.798;10.022;2023-04-28T08:50:15;10.90;99.90
5779;DHT22;2916;49.798;10.022;2023-04-28T08:52:51;10.90;99.90
5779;DHT22;2916;49.798;10.022;2023-04-28T08:55:19;11.00;99.90
5779;DHT22;2916;49.798;10.022;2023-04-28T08:57:48;11.00;99.90
5779;DHT22;2916;49.798;10.022;2023-04-28T09:00:17;11.00;99.90
5779;DHT22;2916;49.798;10.022;2023-04-28T09:02:47;11.00;99.90
5779;DHT22;2916;49.798;10.022;2023-04-28T09:05:14;11.10;99.90
5779;DHT22;2916;49.798;10.022;2023-04-28T09:07:45;11.20;99.90
5779;DHT22;2916;49.798;10.022;2023-04-28T09:10:19;11.40;99.90
5779;DHT22;2916;49.798;10.022;2023-04-28T09:12:51;11.40;99.90
5779;DHT22;2916;49.798;10.022;2023-04-28T09:15:28;11.50;99.90
5779;DHT22;2916;49.798;10.022;2023-04-28T09:17:56;11.50;99.90
5779;DHT22;2916;49.798;10.022;2023-04-28T09:20:27;11.50;99.90
5779;DHT22;2916;49.798;10.022;2023-04-28T09:23:11;11.50;99.90
5779;DHT22;2916;49.798;10.022;2023-04-28T09:25:54;11.70;99.90
5779;DHT22;2916;49.798;10.022;2023-04-28T09:28:25;11.70;99.90
5779;DHT22;2916;49.798;10.022;2023-04-28T09:30:53;11.70;99.90
5779;DHT22;2916;49.798;10.022;2023-04-28T09:33:20;11.70;99.90
5779;DHT22;2916;49.798;10.022;2023-04-28T09:35:48;11.70;99.90
5779;DHT22;2916;49.798;10.022;2023-04-28T09:38:15;11.80;99.90
5779;DHT22;2916;49.798;10.022;2023-04-28T09:40:54;11.90;99.90
5779;DHT22;2916;49.798;10.022;2023-04-28T09:43:24;11.90;99.90
5779;DHT22;2916;49.798;10.022;2023-04-28T09:45:52;11.80;99.90
5779;DHT22;2916;49.798;10.022;2023-04-28T09:48:31;11.80;99.90
5779;DHT22;2916;49.798;10.022;2023-04-28T09:51:01;11.90;99.90
5779;DHT22;2916;49.798;10.022;2023-04-28T09:53:31;11.90;99.90
5779;DHT22;2916;49.798;10.022;2023-04-28T09:56:02;12.00;99.90
5779;DHT22;2916;49.798;10.022;2023-04-28T09:58:31;12.00;99.90
5779;DHT22;2916;49.798;10.022;2023-04-28T10:01:06;12.10;99.90
5779;DHT22;2916;49.798;10.022;2023-04-28T10:03:38;12.10;99.90
5779;DHT22;2916;49.798;10.022;2023-04-28T10:06:05;12.20;99.90
5779;DHT22;2916;49.798;10.022;2023-04-28T10:08:33;12.30;99.90
5779;DHT22;2916;49.798;10.022;2023-04-28T10:11:02;12.30;99.90
5779;DHT22;2916;49.798;10.022;2023-04-28T10:13:31;12.40;99.90
5779;DHT22;2916;49.798;10.022;2023-04-28T10:16:01;12.40;99.90
5779;DHT22;2916;49.798;10.022;2023-04-28T10:18:31;12.50;99.90
5779;DHT22;2916;49.798;10.022;2023-04-28T10:21:01;12.60;99.90
5779;DHT22;2916;49.798;10.022;2023-04-28T10:23:46;12.70;99.90
5779;DHT22;2916;49.798;10.022;2023-04-28T10:29:33;12.80;99.90
5779;DHT22;2916;49.798;10.022;2023-04-28T10:32:21;12.90;99.90
5779;DHT22;2916;49.798;10.022;2023-04-28T10:34:51;13.00;99.90
5779;DHT22;2916;49.798;10.022;2023-04-28T10:37:18;13.00;99.90
5779;DHT22;2916;49.798;10.022;2023-04-28T10:42:59;13.20;99.90
5779;DHT22;2916;49.798;10.022;2023-04-28T10:45:58;13.10;99.90
5779;DHT22;2916;49.798;10.022;2023-04-28T10:49:01;13.10;99.90
5779;DHT22;2916;49.798;10.022;2023-04-28T10:51:29;13.30;99.90
5779;DHT22;2916;49.798;10.022;2023-04-28T10:54:13;13.30;99.90
5779;DHT22;2916;49.798;10.022;2023-04-28T10:57:18;13.40;99.90
5779;DHT22;2916;49.798;10.022;2023-04-28T10:59:51;13.30;99.90
5779;DHT22;2916;49.798;10.022;2023-04-28T11:02:59;13.40;99.90
5779;DHT22;2916;49.798;10.022;2023-04-28T11:05:27;13.40;99.90
5779;DHT22;2916;49.798;10.022;2023-04-28T11:08:32;13.50;99.90
5779;DHT22;2916;49.798;10.022;2023-04-28T11:11:16;13.40;99.90
5779;DHT22;2916;49.798;10.022;2023-04-28T11:13:44;13.40;99.90
5779;DHT22;2916;49.798;10.022;2023-04-28T11:16:21;13.70;99.90
5779;DHT22;2916;49.798;10.022;2023-04-28T11:18:56;13.50;99.90
5779;DHT22;2916;49.798;10.022;2023-04-28T11:21:30;13.50;99.90
5779;DHT22;2916;49.798;10.022;2023-04-28T11:23:58;13.60;99.90
5779;DHT22;2916;49.798;10.022;2023-04-28T11:26:26;13.70;99.90
5779;DHT22;2916;49.798;10.022;2023-04-28T11:28:55;13.90;99.90
5779;DHT22;2916;49.798;10.022;2023-04-28T11:31:25;13.80;99.90
5779;DHT22;2916;49.798;10.022;2023-04-28T11:33:57;13.90;99.90
5779;DHT22;2916;49.798;10.022;2023-04-28T11:36:28;14.00;99.90
5779;DHT22;2916;49.798;10.022;2023-04-28T11:38:57;14.20;99.90
5779;DHT22;2916;49.798;10.022;2023-04-28T11:41:25;14.30;99.90
5779;DHT22;2916;49.798;10.022;2023-04-28T11:43:53;14.50;99.90
5779;DHT22;2916;49.798;10.022;2023-04-28T11:46:22;14.50;99.90
5779;DHT22;2916;49.798;10.022;2023-04-28T11:49:02;14.50;99.90
5779;DHT22;2916;49.798;10.022;2023-04-28T11:51:35;14.60;99.90
5779;DHT22;2916;49.798;10.022;2023-04-28T11:54:04;14.70;99.90
5779;DHT22;2916;49.798;10.022;2023-04-28T11:56:37;14.70;99.90
5779;DHT22;2916;49.798;10.022;2023-04-28T11:59:07;14.90;99.90
5779;DHT22;2916;49.798;10.022;2023-04-28T12:01:45;15.00;99.90
5779;DHT22;2916;49.798;10.022;2023-04-28T12:04:14;15.00;99.90
5779;DHT22;2916;49.798;10.022;2023-04-28T12:07:00;15.30;99.90
5779;DHT22;2916;49.798;10.022;2023-04-28T12:09:29;15.10;99.90
5779;DHT22;2916;49.798;10.022;2023-04-28T12:12:00;15.30;99.90
5779;DHT22;2916;49.798;10.022;2023-04-28T12:14:29;15.40;99.90
5779;DHT22;2916;49.798;10.022;2023-04-28T12:17:01;15.60;99.90
5779;DHT22;2916;49.798;10.022;2023-04-28T12:19:28;15.60;99.90
5779;DHT22;2916;49.798;10.022;2023-04-28T12:22:01;15.60;99.90
5779;DHT22;2916;49.798;10.022;2023-04-28T12:24:30;15.70;99.90
5779;DHT22;2916;49.798;10.022;2023-04-28T12:27:17;15.50;99.90
5779;DHT22;2916;49.798;10.022;2023-04-28T12:29:46;15.70;99.90
5779;DHT22;2916;49.798;10.022;2023-04-28T12:32:15;15.90;99.90
5779;DHT22;2916;49.798;10.022;2023-04-28T12:34:44;16.00;99.90
5779;DHT22;2916;49.798;10.022;2023-04-28T12:37:12;15.80;99.90
5779;DHT22;2916;49.798;10.022;2023-04-28T12:39:40;16.00;99.90
5779;DHT22;2916;49.798;10.022;2023-04-28T12:42:08;16.10;99.90
5779;DHT22;2916;49.798;10.022;2023-04-28T12:44:36;16.30;99.90
5779;DHT22;2916;49.798;10.022;2023-04-28T12:47:06;16.20;99.90
5779;DHT22;2916;49.798;10.022;2023-04-28T12:49:37;16.20;99.90
5779;DHT22;2916;49.798;10.022;2023-04-28T12:52:05;16.30;99.90
5779;DHT22;2916;49.798;10.022;2023-04-28T12:54:32;16.20;99.90
5779;DHT22;2916;49.798;10.022;2023-04-28T12:57:00;16.20;99.90
5779;DHT22;2916;49.798;10.022;2023-04-28T12:59:28;16.20;99.90
5779;DHT22;2916;49.798;10.022;2023-04-28T13:01:57;16.30;99.90
5779;DHT22;2916;49.798;10.022;2023-04-28T13:04:24;16.20;99.90
5779;DHT22;2916;49.798;10.022;2023-04-28T13:06:53;16.20;99.90
5779;DHT22;2916;49.798;10.022;2023-04-28T13:09:20;16.30;99.90
5779;DHT22;2916;49.798;10.022;2023-04-28T13:11:47;16.30;99.90
5779;DHT22;2916;49.798;10.022;2023-04-28T13:14:14;16.40;99.90
5779;DHT22;2916;49.798;10.022;2023-04-28T13:16:41;16.40;99.90
5779;DHT22;2916;49.798;10.022;2023-04-28T13:19:08;16.50;99.90
5779;DHT22;2916;49.798;10.022;2023-04-28T13:21:38;16.70;99.90
5779;DHT22;2916;49.798;10.022;2023-04-28T13:24:08;16.80;99.90
5779;DHT22;2916;49.798;10.022;2023-04-28T13:26:36;16.80;99.90
5779;DHT22;2916;49.798;10.022;2023-04-28T13:29:04;16.80;99.90
5779;DHT22;2916;49.798;10.022;2023-04-28T13:31:32;16.80;99.90
5779;DHT22;2916;49.798;10.022;2023-04-28T13:34:00;17.00;99.90
5779;DHT22;2916;49.798;10.022;2023-04-28T13:36:28;17.10;99.90
5779;DHT22;2916;49.798;10.022;2023-04-28T13:38:59;17.00;99.90
5779;DHT22;2916;49.798;10.022;2023-04-28T13:41:28;17.00;99.90
5779;DHT22;2916;49.798;10.022;2023-04-28T13:43:55;17.20;99.90
5779;DHT22;2916;49.798;10.022;2023-04-28T13:46:23;17.40;99.90
5779;DHT22;2916;49.798;10.022;2023-04-28T13:48:50;17.40;99.90
5779;DHT22;2916;49.798;10.022;2023-04-28T13:51:17;17.20;99.90
5779;DHT22;2916;49.798;10.022;2023-04-28T13:53:44;17.40;99.90
5779;DHT22;2916;49.798;10.022;2023-04-28T13:56:11;17.50;99.90
5779;DHT22;2916;49.798;10.022;2023-04-28T13:58:40;17.40;99.90
5779;DHT22;2916;49.798;10.022;2023-04-28T14:01:07;17.30;99.90
5779;DHT22;2916;49.798;10.022;2023-04-28T14:03:34;17.40;99.90
5779;DHT22;2916;49.798;10.022;2023-04-28T14:06:01;17.50;99.90
5779;DHT22;2916;49.798;10.022;2023-04-28T14:08:29;17.30;99.90
5779;DHT22;2916;49.798;10.022;2023-04-28T14:10:56;17.30;99.90
5779;DHT22;2916;49.798;10.022;2023-04-28T14:13:23;17.40;99.90
5779;DHT22;2916;49.798;10.022;2023-04-28T14:15:53;17.40;99.90
5779;DHT22;2916;49.798;10.022;2023-04-28T14:18:20;17.00;99.90
5779;DHT22;2916;49.798;10.022;2023-04-28T14:20:47;17.20;99.90
5779;DHT22;2916;49.798;10.022;2023-04-28T14:23:15;17.40;99.90
5779;DHT22;2916;49.798;10.022;2023-04-28T14:25:42;17.40;99.90
5779;DHT22;2916;49.798;10.022;2023-04-28T14:28:09;17.20;99.90
5779;DHT22;2916;49.798;10.022;2023-04-28T14:30:36;17.30;99.90
5779;DHT22;2916;49.798;10.022;2023-04-28T14:33:05;17.30;99.90
5779;DHT22;2916;49.798;10.022;2023-04-28T14:35:33;17.40;99.90
5779;DHT22;2916;49.798;10.022;2023-04-28T14:38:02;17.40;99.90
5779;DHT22;2916;49.798;10.022;2023-04-28T14:40:30;17.40;99.90
5779;DHT22;2916;49.798;10.022;2023-04-28T14:42:57;17.40;99.90
5779;DHT22;2916;49.798;10.022;2023-04-28T14:45:25;17.60;99.90
5779;DHT22;2916;49.798;10.022;2023-04-28T14:47:52;17.50;99.90
5779;DHT22;2916;49.798;10.022;2023-04-28T14:50:21;17.60;99.90
5779;DHT22;2916;49.798;10.022;2023-04-28T14:52:48;17.70;99.90
5779;DHT22;2916;49.798;10.022;2023-04-28T14:55:15;17.60;99.90
5779;DHT22;2916;49.798;10.022;2023-04-28T14:57:43;17.70;99.90
5779;DHT22;2916;49.798;10.022;2023-04-28T15:00:12;17.50;99.90
5779;DHT22;2916;49.798;10.022;2023-04-28T15:02:40;17.50;99.90
5779;DHT22;2916;49.798;10.022;2023-04-28T15:05:08;17.60;99.90
5779;DHT22;2916;49.798;10.022;2023-04-28T15:07:37;17.70;99.90
5779;DHT22;2916;49.798;10.022;2023-04-28T15:10:05;17.80;99.90
5779;DHT22;2916;49.798;10.022;2023-04-28T15:12:33;17.80;99.90
5779;DHT22;2916;49.798;10.022;2023-04-28T15:15:01;17.90;99.90
5779;DHT22;2916;49.798;10.022;2023-04-28T15:17:28;17.90;99.90
5779;DHT22;2916;49.798;10.022;2023-04-28T15:19:55;17.90;99.90
5779;DHT22;2916;49.798;10.022;2023-04-28T15:22:23;17.90;99.90
5779;DHT22;2916;49.798;10.022;2023-04-28T15:24:51;17.90;99.90
5779;DHT22;2916;49.798;10.022;2023-04-28T15:27:20;17.90;99.90
5779;DHT22;2916;49.798;10.022;2023-04-28T15:29:47;18.00;99.90
5779;DHT22;2916;49.798;10.022;2023-04-28T15:32:14;18.00;99.90
5779;DHT22;2916;49.798;10.022;2023-04-28T15:34:42;17.90;99.90
5779;DHT22;2916;49.798;10.022;2023-04-28T15:37:40;18.00;99.90
5779;DHT22;2916;49.798;10.022;2023-04-28T15:40:11;17.90;99.90
5779;DHT22;2916;49.798;10.022;2023-04-28T15:42:40;17.90;99.90
5779;DHT22;2916;49.798;10.022;2023-04-28T15:45:10;18.00;99.90
5779;DHT22;2916;49.798;10.022;2023-04-28T15:47:38;18.00;99.90
5779;DHT22;2916;49.798;10.022;2023-04-28T15:50:08;17.90;99.90
5779;DHT22;2916;49.798;10.022;2023-04-28T15:52:40;17.70;99.90
5779;DHT22;2916;49.798;10.022;2023-04-28T15:55:12;17.90;99.90
5779;DHT22;2916;49.798;10.022;2023-04-28T15:57:40;18.10;99.90
5779;DHT22;2916;49.798;10.022;2023-04-28T16:00:09;18.10;99.90
5779;DHT22;2916;49.798;10.022;2023-04-28T16:02:39;17.90;99.90
5779;DHT22;2916;49.798;10.022;2023-04-28T16:05:07;18.00;99.90
5779;DHT22;2916;49.798;10.022;2023-04-28T16:07:35;17.90;99.90